createdAt,value
2019-02-19T04:38:49.783Z,16.29
2019-02-19T04:39:49.773Z,16.60
2019-02-19T04:40:49.814Z,17.50
2019-02-19T04:41:49.754Z,18.79
2019-02-19T04:42:49.746Z,19.00
2019-02-19T04:43:49.753Z,18.50
2019-02-19T04:44:49.720Z,25.10
2019-02-19T04:45:49.715Z,21.60
2019-02-19T04:46:49.697Z,23.20
2019-02-19T04:47:49.685Z,26.10
2019-02-19T04:48:49.675Z,25.00
2019-02-19T04:49:49.674Z,21.89
2019-02-19T04:50:49.663Z,24.10
2019-02-19T04:51:49.644Z,26.39
2019-02-19T04:52:49.633Z,28.29
2019-02-19T04:53:49.632Z,30.10
2019-02-19T04:54:49.609Z,30.00
2019-02-19T04:55:49.643Z,34.79
2019-02-19T04:56:49.632Z,28.60
2019-02-19T04:57:49.594Z,33.70
2019-02-19T04:58:49.573Z,31.20
2019-02-19T04:59:49.564Z,33.00
2019-02-19T05:00:49.563Z,35.50
2019-02-19T05:01:49.543Z,38.20
2019-02-19T05:02:51.541Z,39.29
2019-02-19T05:03:49.515Z,40.40
2019-02-19T05:04:49.571Z,38.79
2019-02-19T05:05:49.491Z,36.70
2019-02-19T05:06:49.483Z,42.59
2019-02-19T05:07:49.479Z,43.20
2019-02-19T05:08:49.468Z,40.40
2019-02-19T05:09:49.450Z,36.40
2019-02-19T05:10:49.449Z,44.20
2019-02-19T05:11:49.424Z,39.59
2019-02-19T05:12:49.461Z,40.70
2019-02-19T05:13:49.396Z,39.20
2019-02-19T05:14:49.402Z,42.00
2019-02-19T05:15:49.380Z,41.09
2019-02-19T05:16:49.379Z,42.90
2019-02-19T05:17:49.353Z,40.00
2019-02-19T05:18:49.365Z,42.20
2019-02-19T05:19:49.352Z,42.29
2019-02-19T05:20:49.343Z,45.00
2019-02-19T05:21:49.353Z,40.09
2019-02-19T05:22:49.321Z,40.40
2019-02-19T05:23:49.301Z,40.40
2019-02-19T05:24:49.282Z,39.79
2019-02-19T05:25:49.272Z,40.90
2019-02-19T05:26:49.267Z,37.79
2019-02-19T05:27:49.256Z,37.59
2019-02-19T05:28:49.244Z,40.90
2019-02-19T05:29:49.230Z,39.09
2019-02-19T05:30:49.222Z,43.50
2019-02-19T05:31:49.207Z,38.20
2019-02-19T05:32:49.197Z,40.09
2019-02-19T05:33:49.187Z,40.50
2019-02-19T05:34:49.177Z,38.29
2019-02-19T05:35:49.166Z,36.50
2019-02-19T05:36:49.234Z,38.20
2019-02-19T05:37:49.147Z,39.40
2019-02-19T05:38:49.350Z,37.40
2019-02-19T05:39:49.410Z,42.00
2019-02-19T05:40:49.109Z,42.59
2019-02-19T05:41:49.099Z,36.50
2019-02-19T05:42:49.087Z,41.50
2019-02-19T05:43:49.105Z,39.40
2019-02-19T05:44:49.173Z,37.29
2019-02-19T05:45:49.065Z,40.00
2019-02-19T05:46:50.154Z,39.29
2019-02-19T05:47:49.034Z,34.79
2019-02-19T05:48:49.021Z,36.40
2019-02-19T05:49:49.013Z,40.50
2019-02-19T05:50:49.003Z,41.29
2019-02-19T05:51:48.986Z,43.09
2019-02-19T05:52:48.975Z,40.70
2019-02-19T05:53:48.962Z,38.70
2019-02-19T05:54:49.010Z,38.20
2019-02-19T05:55:48.955Z,34.79
2019-02-19T05:56:48.932Z,38.50
2019-02-19T05:57:48.923Z,38.90
2019-02-19T05:58:48.906Z,38.40
2019-02-19T05:59:48.910Z,42.40
2019-02-19T06:00:48.886Z,41.79
2019-02-19T06:01:48.971Z,44.09
2019-02-19T06:02:48.885Z,45.00
2019-02-19T06:03:48.875Z,37.40
2019-02-19T06:04:48.853Z,41.90
2019-02-19T06:05:48.846Z,41.40
2019-02-19T06:06:48.825Z,44.00
2019-02-19T06:07:48.814Z,42.50
2019-02-19T06:08:48.814Z,46.90
2019-02-19T06:09:48.807Z,42.29
2019-02-19T06:10:48.782Z,43.79
2019-02-19T06:11:48.765Z,44.70
2019-02-19T06:12:48.817Z,43.59
2019-02-19T06:13:48.744Z,44.50
2019-02-19T06:14:48.793Z,45.00
2019-02-19T06:15:48.740Z,40.70
2019-02-19T06:16:48.713Z,42.90
2019-02-19T06:17:48.833Z,42.20
2019-02-19T06:18:48.688Z,38.50
2019-02-19T06:19:48.730Z,38.90
2019-02-19T06:20:48.669Z,44.29
2019-02-19T06:21:48.673Z,43.70
2019-02-19T06:22:48.668Z,41.09
2019-02-19T06:23:48.747Z,38.50
2019-02-19T06:24:48.625Z,43.90
2019-02-19T06:25:48.631Z,40.40
2019-02-19T06:26:48.610Z,37.79
2019-02-19T06:27:48.611Z,41.50
2019-02-19T06:28:48.592Z,46.79
2019-02-19T06:29:48.578Z,44.29
2019-02-19T06:30:48.786Z,37.90
2019-02-19T06:31:48.593Z,38.79
2019-02-19T06:32:48.541Z,42.79
2019-02-19T06:33:48.576Z,37.50
2019-02-19T06:34:48.524Z,38.29
2019-02-19T06:35:48.556Z,42.29
2019-02-19T06:36:48.572Z,43.70
2019-02-19T06:37:48.549Z,46.00
2019-02-19T06:38:48.512Z,42.09
2019-02-19T06:39:48.511Z,39.40
2019-02-19T06:40:48.478Z,45.40
2019-02-19T06:41:48.483Z,39.59
2019-02-19T06:42:48.456Z,46.09
2019-02-19T06:43:48.413Z,40.00
2019-02-19T06:44:48.407Z,42.29
2019-02-19T06:45:48.899Z,39.79
2019-02-19T06:46:49.934Z,48.40
2019-02-19T06:47:48.403Z,39.90
2019-02-19T06:48:48.518Z,46.79
2019-02-19T06:49:48.374Z,46.29
2019-02-19T06:50:48.339Z,46.79
2019-02-19T06:51:48.350Z,42.00
2019-02-19T06:52:48.329Z,44.50
2019-02-19T06:53:48.308Z,45.90
2019-02-19T06:54:48.329Z,47.29
2019-02-19T06:55:48.334Z,43.40
2019-02-19T06:56:48.335Z,50.50
2019-02-19T06:57:48.272Z,45.59
2019-02-19T06:58:48.275Z,45.79
2019-02-19T06:59:48.246Z,43.90
2019-02-19T07:00:48.243Z,45.50
2019-02-19T07:01:48.229Z,44.29
2019-02-19T07:02:48.214Z,42.29
2019-02-19T07:03:48.300Z,47.00
2019-02-19T07:04:48.210Z,44.40
2019-02-19T07:05:48.179Z,42.40
2019-02-19T07:06:48.175Z,43.90
2019-02-19T07:07:48.154Z,43.90
2019-02-19T07:08:48.152Z,45.90
2019-02-19T07:09:48.137Z,46.29
2019-02-19T07:10:48.122Z,48.79
2019-02-19T07:11:48.110Z,44.20
2019-02-19T07:12:48.168Z,43.50
2019-02-19T07:13:48.097Z,45.09
2019-02-19T07:14:48.105Z,44.40
2019-02-19T07:15:48.090Z,49.50
2019-02-19T07:16:48.067Z,43.20
2019-02-19T07:17:48.056Z,44.40
2019-02-19T07:18:48.041Z,43.20
2019-02-19T07:19:51.211Z,42.79
2019-02-19T07:20:48.084Z,39.40
2019-02-19T07:21:48.003Z,41.20
2019-02-19T07:22:48.003Z,45.20
2019-02-19T07:23:48.002Z,45.79
2019-02-19T07:24:47.967Z,44.00
2019-02-19T07:25:49.001Z,41.59
2019-02-19T07:26:47.949Z,45.00
2019-02-19T07:27:47.940Z,40.59
2019-02-19T07:28:47.924Z,41.00
2019-02-19T07:29:47.986Z,43.70
2019-02-19T07:30:49.568Z,46.00
2019-02-19T07:31:47.902Z,44.09
2019-02-19T07:32:47.896Z,42.00
2019-02-19T07:33:47.877Z,39.79
2019-02-19T07:34:47.861Z,38.70
2019-02-19T07:35:47.856Z,45.20
2019-02-19T07:36:47.842Z,42.79
2019-02-19T07:37:47.871Z,42.20
2019-02-19T07:38:47.847Z,41.20
2019-02-19T07:39:47.809Z,40.79
2019-02-19T07:40:47.802Z,42.00
2019-02-19T07:41:47.792Z,39.90
2019-02-19T07:42:47.775Z,43.59
2019-02-19T07:43:47.764Z,39.09
2019-02-19T07:44:47.754Z,37.90
2019-02-19T07:45:47.748Z,38.09
2019-02-19T07:46:47.744Z,39.50
2019-02-19T07:47:47.720Z,37.50
2019-02-19T07:48:47.737Z,34.70
2019-02-19T07:49:47.708Z,34.70
2019-02-19T07:50:47.700Z,34.79
2019-02-19T07:51:47.696Z,31.79
2019-02-19T07:52:47.702Z,30.29
2019-02-19T07:53:47.654Z,32.79
2019-02-19T07:54:47.669Z,35.40
2019-02-19T07:55:47.677Z,32.50
2019-02-19T07:56:47.639Z,30.10
2019-02-19T07:57:47.621Z,30.00
2019-02-19T07:58:47.599Z,28.89
2019-02-19T07:59:47.939Z,25.00
2019-02-19T08:00:47.817Z,25.39
2019-02-19T08:01:47.580Z,29.79
2019-02-19T08:02:47.624Z,26.70
2019-02-19T08:03:47.545Z,23.60
2019-02-19T08:04:47.610Z,26.70
2019-02-19T08:05:47.542Z,24.39
2019-02-19T08:06:47.581Z,22.70
2019-02-19T08:07:47.514Z,22.89
2019-02-19T08:08:47.506Z,24.79
2019-02-19T08:09:47.494Z,21.20
2019-02-19T08:10:47.480Z,22.50
2019-02-19T08:11:47.485Z,21.10
2019-02-19T08:12:47.476Z,20.20
2019-02-19T08:13:47.448Z,20.60
2019-02-19T08:14:47.431Z,19.60
2019-02-19T08:15:47.426Z,24.60
2019-02-19T08:16:47.408Z,19.10
2019-02-19T08:17:47.632Z,17.29
2019-02-19T08:18:47.385Z,17.70
2019-02-19T08:19:48.759Z,19.10
2019-02-19T08:20:47.379Z,23.29
2019-02-19T08:21:47.358Z,20.50
2019-02-19T08:22:47.341Z,21.50
2019-02-19T08:23:47.365Z,20.50
2019-02-19T08:24:47.321Z,24.50
2019-02-19T08:25:47.310Z,21.89
2019-02-19T08:26:47.310Z,23.20
2019-02-19T08:27:47.294Z,22.79
2019-02-19T08:28:47.276Z,22.39
2019-02-19T08:29:47.310Z,23.39
2019-02-19T08:30:47.709Z,21.10
2019-02-19T08:31:47.255Z,21.79
2019-02-19T08:32:47.240Z,20.39
2019-02-19T08:33:47.227Z,21.20
2019-02-19T08:34:47.205Z,21.39
2019-02-19T08:35:47.194Z,20.39
2019-02-19T08:36:47.207Z,21.10
2019-02-19T08:37:47.200Z,19.60
2019-02-19T08:38:47.169Z,22.60
2019-02-19T08:39:47.161Z,21.00
2019-02-19T08:40:47.151Z,20.39
2019-02-19T08:41:47.136Z,23.29
2019-02-19T08:42:47.126Z,22.89
2019-02-19T08:43:47.157Z,23.50
2019-02-19T08:44:47.127Z,21.50
2019-02-19T08:45:47.092Z,19.00
2019-02-19T08:46:47.106Z,20.10
2019-02-19T08:47:47.079Z,20.29
2019-02-19T08:48:47.057Z,23.39
2019-02-19T08:49:47.061Z,18.60
2019-02-19T08:50:47.041Z,20.70
2019-02-19T08:51:55.745Z,19.79
2019-02-19T08:53:11.801Z,20.39
2019-02-19T08:54:11.817Z,20.20
2019-02-19T08:55:11.802Z,22.20
2019-02-19T08:56:11.807Z,22.29
2019-02-19T08:57:11.819Z,18.00
2019-02-19T08:58:11.754Z,16.89
2019-02-19T08:59:11.732Z,20.00
2019-02-19T09:00:25.704Z,19.89
2019-02-19T09:01:36.797Z,18.10
2019-02-19T09:02:36.801Z,16.70
2019-02-19T09:03:36.789Z,18.20
2019-02-19T09:04:36.764Z,16.10
2019-02-19T09:05:36.772Z,13.00
2019-02-19T09:06:36.741Z,12.39
2019-02-19T09:07:36.730Z,14.69
2019-02-19T09:08:37.511Z,13.50
2019-02-19T09:09:36.707Z,17.20
2019-02-19T09:10:36.696Z,13.19
2019-02-19T09:11:36.710Z,12.39
2019-02-19T09:12:36.720Z,13.10
2019-02-19T09:13:36.671Z,11.19
2019-02-19T09:14:36.666Z,14.60
2019-02-19T09:15:36.640Z,13.30
2019-02-19T09:16:36.637Z,10.89
2019-02-19T09:17:36.621Z,12.30
2019-02-19T09:18:36.621Z,14.10
2019-02-19T09:19:36.690Z,12.30
2019-02-19T09:20:36.917Z,13.19
2019-02-19T09:21:36.575Z,12.39
2019-02-19T09:22:36.566Z,15.00
2019-02-19T09:23:36.600Z,12.69
2019-02-19T09:24:36.536Z,11.89
2019-02-19T09:25:36.536Z,13.69
2019-02-19T09:26:36.518Z,12.30
2019-02-19T09:27:36.509Z,13.10
2019-02-19T09:28:36.511Z,12.00
2019-02-19T09:29:36.528Z,12.39
2019-02-19T09:30:36.470Z,13.19
2019-02-19T09:31:36.461Z,12.89
2019-02-19T09:32:36.491Z,11.19
2019-02-19T09:33:36.452Z,14.39
2019-02-19T09:34:36.428Z,14.00
2019-02-19T09:35:36.450Z,14.19
2019-02-19T09:36:36.439Z,9.50
2019-02-19T09:37:38.940Z,12.10
2019-02-19T09:38:36.475Z,12.30
2019-02-19T09:39:37.562Z,10.30
2019-02-19T09:40:36.374Z,12.69
2019-02-19T09:41:36.366Z,11.50
2019-02-19T09:42:36.352Z,11.00
2019-02-19T09:43:36.333Z,12.69
2019-02-19T09:44:36.325Z,12.10
2019-02-19T09:45:36.432Z,13.39
2019-02-19T09:46:36.307Z,12.89
2019-02-19T09:47:36.298Z,12.80
2019-02-19T09:48:36.279Z,12.19
2019-02-19T09:49:36.263Z,12.80
2019-02-19T09:50:36.254Z,10.50
2019-02-19T09:51:36.249Z,12.10
2019-02-19T09:52:36.252Z,15.00
2019-02-19T09:53:36.231Z,13.10
2019-02-19T09:54:38.276Z,12.50
2019-02-19T09:55:36.300Z,11.39
2019-02-19T09:56:36.187Z,12.60
2019-02-19T09:57:36.194Z,12.50
2019-02-19T09:58:36.216Z,11.10
2019-02-19T09:59:36.175Z,13.19
2019-02-19T10:00:45.106Z,11.30
2019-02-19T10:02:01.800Z,15.10
2019-02-19T10:03:01.824Z,14.39
2019-02-19T10:04:01.750Z,13.19
2019-02-19T10:05:01.830Z,14.39
2019-02-19T10:06:01.816Z,15.19
2019-02-19T10:07:01.718Z,11.60
2019-02-19T10:08:01.724Z,12.89
2019-02-19T10:09:01.698Z,13.60
2019-02-19T10:10:01.700Z,14.80
2019-02-19T10:11:01.760Z,17.39
2019-02-19T10:12:01.666Z,13.69
2019-02-19T10:13:01.646Z,11.89
2019-02-19T10:14:01.762Z,13.00
2019-02-19T10:15:01.635Z,12.69
2019-02-19T10:16:01.704Z,12.39
2019-02-19T10:17:01.754Z,11.89
2019-02-19T10:18:09.727Z,13.30
2019-02-19T10:19:27.528Z,13.50
2019-02-19T10:20:27.549Z,11.89
2019-02-19T10:21:27.594Z,13.10
2019-02-19T10:22:27.504Z,10.60
2019-02-19T10:23:27.514Z,11.00
2019-02-19T10:24:27.477Z,11.00
2019-02-19T10:25:27.471Z,11.39
2019-02-19T10:26:27.432Z,10.30
2019-02-19T10:27:27.430Z,11.89
2019-02-19T10:28:27.425Z,10.00
2019-02-19T10:29:27.402Z,11.10
2019-02-19T10:30:27.393Z,12.10
2019-02-19T10:31:27.400Z,10.60
2019-02-19T10:32:27.373Z,9.30
2019-02-19T10:33:27.371Z,11.50
2019-02-19T10:34:27.354Z,9.60
2019-02-19T10:35:27.340Z,15.50
2019-02-19T10:36:29.960Z,8.19
2019-02-19T10:37:27.311Z,9.10
2019-02-19T10:38:27.321Z,11.39
2019-02-19T10:39:27.308Z,11.39
2019-02-19T10:40:27.302Z,8.19
2019-02-19T10:41:27.479Z,11.30
2019-02-19T10:42:27.281Z,9.10
2019-02-19T10:43:27.248Z,10.80
2019-02-19T10:44:27.252Z,9.19
2019-02-19T10:45:27.239Z,7.59
2019-02-19T10:46:27.234Z,9.80
2019-02-19T10:47:27.232Z,8.69
2019-02-19T10:48:27.204Z,10.80
2019-02-19T10:49:27.212Z,10.69
2019-02-19T10:50:27.196Z,10.89
2019-02-19T10:51:27.173Z,7.90
2019-02-19T10:52:27.149Z,8.30
2019-02-19T10:53:27.145Z,9.00
2019-02-19T10:54:27.141Z,9.19
2019-02-19T10:55:27.116Z,10.39
2019-02-19T10:56:27.100Z,8.39
2019-02-19T10:57:27.114Z,10.30
2019-02-19T10:58:27.100Z,9.19
2019-02-19T10:59:27.099Z,10.60
2019-02-19T11:00:27.097Z,10.69
2019-02-19T11:01:27.062Z,8.19
2019-02-19T11:02:27.041Z,8.89
2019-02-19T11:03:27.042Z,9.89
2019-02-19T11:04:27.027Z,11.39
2019-02-19T11:05:27.005Z,10.10
2019-02-19T11:06:27.020Z,11.60
2019-02-19T11:07:26.996Z,8.30
2019-02-19T11:08:27.006Z,9.10
2019-02-19T11:09:26.970Z,8.60
2019-02-19T11:10:27.955Z,10.60
2019-02-19T11:11:26.942Z,8.60
2019-02-19T11:12:26.937Z,7.00
2019-02-19T11:13:26.948Z,8.89
2019-02-19T11:14:26.913Z,8.19
2019-02-19T11:15:28.345Z,8.60
2019-02-19T11:16:26.892Z,7.00
2019-02-19T11:17:26.892Z,9.10
2019-02-19T11:18:28.760Z,9.00
2019-02-19T11:19:26.852Z,8.10
2019-02-19T11:20:26.875Z,9.80
2019-02-19T11:21:26.843Z,9.80
2019-02-19T11:22:26.865Z,8.19
2019-02-19T11:23:26.849Z,8.39
2019-02-19T11:24:26.816Z,9.30
2019-02-19T11:25:26.800Z,7.40
2019-02-19T11:26:26.791Z,7.50
2019-02-19T11:27:26.787Z,6.90
2019-02-19T11:28:26.761Z,10.00
2019-02-19T11:29:26.758Z,7.09
2019-02-19T11:30:26.773Z,7.50
2019-02-19T11:31:26.723Z,7.80
2019-02-19T11:32:26.711Z,6.59
2019-02-19T11:33:26.712Z,5.40
2019-02-19T11:34:26.747Z,7.69
2019-02-19T11:35:26.728Z,7.19
2019-02-19T11:36:29.295Z,7.09
2019-02-19T11:37:27.005Z,5.90
2019-02-19T11:38:26.680Z,7.90
2019-02-19T11:39:26.743Z,7.09
2019-02-19T11:40:26.727Z,3.90
2019-02-19T11:41:26.629Z,4.50
2019-02-19T11:42:26.677Z,6.00
2019-02-19T11:43:26.588Z,5.00
2019-02-19T11:44:26.582Z,7.40
2019-02-19T11:45:26.573Z,8.89
2019-02-19T11:46:26.630Z,6.80
2019-02-19T11:47:26.843Z,7.40
2019-02-19T11:48:26.544Z,6.50
2019-02-19T11:49:26.525Z,5.00
2019-02-19T11:50:26.539Z,8.10
2019-02-19T11:51:26.500Z,7.09
2019-02-19T11:52:26.493Z,7.50
2019-02-19T11:53:26.486Z,7.40
2019-02-19T11:54:26.535Z,5.50
2019-02-19T11:55:26.506Z,4.00
2019-02-19T11:56:26.457Z,6.90
2019-02-19T11:57:26.448Z,5.59
2019-02-19T11:58:26.478Z,6.00
2019-02-19T11:59:26.408Z,7.50
2019-02-19T12:00:43.368Z,5.00
2019-02-19T12:01:51.801Z,5.40
2019-02-19T12:02:51.809Z,7.19
2019-02-19T12:03:51.849Z,7.19
2019-02-19T12:04:51.773Z,6.40
2019-02-19T12:05:51.735Z,6.19
2019-02-19T12:06:51.728Z,7.59
2019-02-19T12:07:51.714Z,7.50
2019-02-19T12:08:51.704Z,6.80
2019-02-19T12:09:51.692Z,7.80
2019-02-19T12:10:51.716Z,7.50
2019-02-19T12:11:51.673Z,4.80
2019-02-19T12:12:51.671Z,5.80
2019-02-19T12:13:51.653Z,7.50
2019-02-19T12:14:51.640Z,4.40
2019-02-19T12:15:51.630Z,9.39
2019-02-19T12:16:51.637Z,5.00
2019-02-19T12:17:51.638Z,4.40
2019-02-19T12:18:51.609Z,6.09
2019-02-19T12:19:51.588Z,7.19
2019-02-19T12:20:51.607Z,4.19
2019-02-19T12:21:51.562Z,6.19
2019-02-19T12:22:51.606Z,6.09
2019-02-19T12:23:51.551Z,5.19
2019-02-19T12:24:51.527Z,6.00
2019-02-19T12:25:51.532Z,4.69
2019-02-19T12:26:51.520Z,4.30
2019-02-19T12:27:51.534Z,6.40
2019-02-19T12:28:51.513Z,6.80
2019-02-19T12:29:51.553Z,5.90
2019-02-19T12:30:51.468Z,4.50
2019-02-19T12:31:51.536Z,4.59
2019-02-19T12:32:51.438Z,5.00
2019-02-19T12:33:51.522Z,6.09
2019-02-19T12:34:51.430Z,6.30
2019-02-19T12:35:51.409Z,6.69
2019-02-19T12:36:51.408Z,7.09
2019-02-19T12:37:51.401Z,7.30
2019-02-19T12:38:51.381Z,4.19
2019-02-19T12:39:51.371Z,6.09
2019-02-19T12:40:51.380Z,7.19
2019-02-19T12:41:51.345Z,6.09
2019-02-19T12:42:51.521Z,5.50
2019-02-19T12:43:51.330Z,6.00
2019-02-19T12:44:51.302Z,5.80
2019-02-19T12:45:51.351Z,6.00
2019-02-19T12:46:51.302Z,6.19
2019-02-19T12:47:51.291Z,5.90
2019-02-19T12:48:54.658Z,6.30
2019-02-19T12:49:51.259Z,5.00
2019-02-19T12:50:51.260Z,5.80
2019-02-19T12:51:51.236Z,6.40
2019-02-19T12:52:51.231Z,6.59
2019-02-19T12:53:51.209Z,6.00
2019-02-19T12:54:51.206Z,6.69
2019-02-19T12:55:51.190Z,6.00
2019-02-19T12:56:51.210Z,6.69
2019-02-19T12:57:51.181Z,4.30
2019-02-19T12:58:51.164Z,5.40
2019-02-19T12:59:56.534Z,4.50
2019-02-19T13:00:51.135Z,6.50
2019-02-19T13:01:51.123Z,6.50
2019-02-19T13:02:51.118Z,4.69
2019-02-19T13:03:51.097Z,5.40
2019-02-19T13:04:51.092Z,5.50
2019-02-19T13:05:51.075Z,6.30
2019-02-19T13:06:51.120Z,8.10
2019-02-19T13:07:51.086Z,5.19
2019-02-19T13:08:51.102Z,4.69
2019-02-19T13:09:51.027Z,4.69
2019-02-19T13:10:51.017Z,6.19
2019-02-19T13:11:51.014Z,4.90
2019-02-19T13:12:51.047Z,3.59
2019-02-19T13:13:51.037Z,5.00
2019-02-19T13:14:50.984Z,5.40
2019-02-19T13:15:50.972Z,3.90
2019-02-19T13:16:50.962Z,6.19
2019-02-19T13:17:50.986Z,5.09
2019-02-19T13:18:50.935Z,6.00
2019-02-19T13:19:50.940Z,4.69
2019-02-19T13:20:50.940Z,4.40
2019-02-19T13:21:50.916Z,5.59
2019-02-19T13:22:50.891Z,4.90
2019-02-19T13:23:50.876Z,4.30
2019-02-19T13:24:50.893Z,3.20
2019-02-19T13:25:50.851Z,7.50
2019-02-19T13:26:50.858Z,3.59
2019-02-19T13:27:50.847Z,3.59
2019-02-19T13:28:50.835Z,6.09
2019-02-19T13:29:50.826Z,4.19
2019-02-19T13:30:50.813Z,4.09
2019-02-19T13:31:50.787Z,4.80
2019-02-19T13:32:50.810Z,2.40
2019-02-19T13:33:50.771Z,3.09
2019-02-19T13:34:50.774Z,6.00
2019-02-19T13:35:51.254Z,5.90
2019-02-19T13:36:50.739Z,4.80
2019-02-19T13:37:50.730Z,5.30
2019-02-19T13:38:50.730Z,3.79
2019-02-19T13:39:50.719Z,5.00
2019-02-19T13:40:50.703Z,4.80
2019-02-19T13:41:50.704Z,4.00
2019-02-19T13:42:50.759Z,4.80
2019-02-19T13:43:50.689Z,8.69
2019-02-19T13:44:50.664Z,5.90
2019-02-19T13:45:50.725Z,3.50
2019-02-19T13:46:50.628Z,7.80
2019-02-19T13:47:50.617Z,4.00
2019-02-19T13:48:51.717Z,4.90
2019-02-19T13:49:50.604Z,5.59
2019-02-19T13:50:50.602Z,3.40
2019-02-19T13:51:50.591Z,4.80
2019-02-19T13:52:50.568Z,3.09
2019-02-19T13:53:50.565Z,5.90
2019-02-19T13:54:50.543Z,4.80
2019-02-19T13:55:52.574Z,6.50
2019-02-19T13:56:50.521Z,5.69
2019-02-19T13:57:50.530Z,4.80
2019-02-19T13:58:50.590Z,3.29
2019-02-19T13:59:50.529Z,4.00
2019-02-19T14:00:52.403Z,6.80
2019-02-19T14:01:50.468Z,6.00
2019-02-19T14:02:50.482Z,4.59
2019-02-19T14:03:50.442Z,6.30
2019-02-19T14:04:50.524Z,7.80
2019-02-19T14:05:50.418Z,7.69
2019-02-19T14:06:50.411Z,4.40
2019-02-19T14:07:50.398Z,6.69
2019-02-19T14:08:50.394Z,5.00
2019-02-19T14:09:50.391Z,3.50
2019-02-19T14:10:50.379Z,4.09
2019-02-19T14:11:50.407Z,4.19
2019-02-19T14:12:50.346Z,4.50
2019-02-19T14:13:50.334Z,5.50
2019-02-19T14:14:50.352Z,4.69
2019-02-19T14:15:50.314Z,7.19
2019-02-19T14:16:52.168Z,6.09
2019-02-19T14:17:50.332Z,5.90
2019-02-19T14:18:50.299Z,4.69
2019-02-19T14:19:50.294Z,5.00
2019-02-19T14:20:50.270Z,4.80
2019-02-19T14:21:50.282Z,5.00
2019-02-19T14:22:50.270Z,3.09
2019-02-19T14:23:50.235Z,5.69
2019-02-19T14:24:50.233Z,4.90
2019-02-19T14:25:50.227Z,3.79
2019-02-19T14:26:50.207Z,6.00
2019-02-19T14:27:50.186Z,7.00
2019-02-19T14:28:50.186Z,5.80
2019-02-19T14:29:50.167Z,5.69
2019-02-19T14:30:50.150Z,5.90
2019-02-19T14:31:50.138Z,6.59
2019-02-19T14:32:50.127Z,6.30
2019-02-19T14:33:50.119Z,5.30
2019-02-19T14:34:50.121Z,3.59
2019-02-19T14:35:50.090Z,4.09
2019-02-19T14:36:50.134Z,6.00
2019-02-19T14:37:50.072Z,6.90
2019-02-19T14:38:50.082Z,5.00
2019-02-19T14:39:50.095Z,4.19
2019-02-19T14:40:50.055Z,5.50
2019-02-19T14:41:50.042Z,4.59
2019-02-19T14:42:50.019Z,4.40
2019-02-19T14:43:50.013Z,6.00
2019-02-19T14:44:50.018Z,5.09
2019-02-19T14:45:49.994Z,5.80
2019-02-19T14:46:50.024Z,6.50
2019-02-19T14:47:49.961Z,5.50
2019-02-19T14:48:49.982Z,5.69
2019-02-19T14:49:49.935Z,6.50
2019-02-19T14:50:49.935Z,7.19
2019-02-19T14:51:49.919Z,6.90
2019-02-19T14:52:49.966Z,5.40
2019-02-19T14:53:49.903Z,4.90
2019-02-19T14:54:49.884Z,4.80
2019-02-19T14:55:49.896Z,2.70
2019-02-19T14:56:49.882Z,4.40
2019-02-19T14:57:49.868Z,6.00
2019-02-19T14:58:49.851Z,5.30
2019-02-19T14:59:49.824Z,7.00
2019-02-19T15:00:49.836Z,5.19
2019-02-19T15:01:49.882Z,4.40
2019-02-19T15:02:49.803Z,4.50
2019-02-19T15:03:49.805Z,5.59
2019-02-19T15:04:49.769Z,3.40
2019-02-19T15:05:49.890Z,6.40
2019-02-19T15:06:49.757Z,4.50
2019-02-19T15:07:51.737Z,4.69
2019-02-19T15:08:49.738Z,7.90
2019-02-19T15:09:49.729Z,4.40
2019-02-19T15:10:49.830Z,6.19
2019-02-19T15:11:49.709Z,5.80
2019-02-19T15:12:49.759Z,8.89
2019-02-19T15:13:49.698Z,7.00
2019-02-19T15:14:49.668Z,5.80
2019-02-19T15:15:49.661Z,6.80
2019-02-19T15:16:49.640Z,4.90
2019-02-19T15:17:49.653Z,4.30
2019-02-19T15:18:49.687Z,9.00
2019-02-19T15:19:49.667Z,4.50
2019-02-19T15:20:49.607Z,5.80
2019-02-19T15:21:49.588Z,6.09
2019-02-19T15:22:49.609Z,6.09
2019-02-19T15:23:49.572Z,5.50
2019-02-19T15:24:49.587Z,7.09
2019-02-19T15:25:49.554Z,8.00
2019-02-19T15:26:49.547Z,4.80
2019-02-19T15:27:49.527Z,9.19
2019-02-19T15:28:49.534Z,7.90
2019-02-19T15:29:49.517Z,6.19
2019-02-19T15:30:49.544Z,5.30
2019-02-19T15:31:50.157Z,5.19
2019-02-19T15:32:49.489Z,7.19
2019-02-19T15:33:49.488Z,7.30
2019-02-19T15:34:49.573Z,5.40
2019-02-19T15:35:49.515Z,4.90
2019-02-19T15:36:49.431Z,3.90
2019-02-19T15:37:49.414Z,6.09
2019-02-19T15:38:49.434Z,8.30
2019-02-19T15:39:49.403Z,6.09
2019-02-19T15:40:49.385Z,7.09
2019-02-19T15:41:49.400Z,4.90
2019-02-19T15:42:49.359Z,7.69
2019-02-19T15:43:49.353Z,4.80
2019-02-19T15:44:49.349Z,3.90
2019-02-19T15:45:49.385Z,6.69
2019-02-19T15:46:49.331Z,3.59
2019-02-19T15:47:49.305Z,7.59
2019-02-19T15:48:49.343Z,5.59
2019-02-19T15:49:49.337Z,4.09
2019-02-19T15:50:49.281Z,4.19
2019-02-19T15:51:49.322Z,4.80
2019-02-19T15:52:49.260Z,7.19
2019-02-19T15:53:49.736Z,4.50
2019-02-19T15:54:49.245Z,5.19
2019-02-19T15:55:49.229Z,8.60
2019-02-19T15:56:49.204Z,5.50
2019-02-19T15:57:49.214Z,6.19
2019-02-19T15:58:49.211Z,6.00
2019-02-19T15:59:49.190Z,5.00
2019-02-19T16:00:49.163Z,5.69
2019-02-19T16:01:49.178Z,9.19
2019-02-19T16:02:49.139Z,5.19
2019-02-19T16:03:49.199Z,7.59
2019-02-19T16:04:49.129Z,5.09
2019-02-19T16:05:49.112Z,7.19
2019-02-19T16:06:49.109Z,6.09
2019-02-19T16:07:49.116Z,5.69
2019-02-19T16:08:49.074Z,3.20
2019-02-19T16:09:49.084Z,4.59
2019-02-19T16:10:49.062Z,3.79
2019-02-19T16:11:49.053Z,6.09
2019-02-19T16:12:49.058Z,4.50
2019-02-19T16:13:49.022Z,6.09
2019-02-19T16:14:49.025Z,6.80
2019-02-19T16:15:49.033Z,5.50
2019-02-19T16:16:49.013Z,6.09
2019-02-19T16:17:49.040Z,4.80
2019-02-19T16:18:48.993Z,5.30
2019-02-19T16:19:56.813Z,6.30
2019-02-19T16:21:14.032Z,6.59
2019-02-19T16:22:14.023Z,4.40
2019-02-19T16:23:14.014Z,4.09
2019-02-19T16:24:14.018Z,5.40
2019-02-19T16:25:13.977Z,3.59
2019-02-19T16:26:14.797Z,5.80
2019-02-19T16:27:13.967Z,7.09
2019-02-19T16:28:13.941Z,6.80
2019-02-19T16:29:13.933Z,5.00
2019-02-19T16:30:13.922Z,7.50
2019-02-19T16:31:13.917Z,5.09
2019-02-19T16:32:13.902Z,4.69
2019-02-19T16:33:15.080Z,6.19
2019-02-19T16:34:13.926Z,3.90
2019-02-19T16:35:13.871Z,5.09
2019-02-19T16:36:13.874Z,6.09
2019-02-19T16:37:13.859Z,7.69
2019-02-19T16:38:13.851Z,6.09
2019-02-19T16:39:13.824Z,6.59
2019-02-19T16:40:13.936Z,5.80
2019-02-19T16:41:13.822Z,5.19
2019-02-19T16:42:13.808Z,5.19
2019-02-19T16:43:13.787Z,3.59
2019-02-19T16:44:13.771Z,5.00
2019-02-19T16:45:13.751Z,5.09
2019-02-19T16:46:13.743Z,6.30
2019-02-19T16:47:13.740Z,6.00
2019-02-19T16:48:13.749Z,5.40
2019-02-19T16:49:13.732Z,6.40
2019-02-19T16:50:13.705Z,3.59
2019-02-19T16:51:13.709Z,4.59
2019-02-19T16:52:13.691Z,6.59
2019-02-19T16:53:13.679Z,8.89
2019-02-19T16:54:13.658Z,6.40
2019-02-19T16:55:13.754Z,5.59
2019-02-19T16:56:13.632Z,6.80
2019-02-19T16:57:13.636Z,6.30
2019-02-19T16:58:13.640Z,8.10
2019-02-19T16:59:13.627Z,4.59
2019-02-19T17:00:13.603Z,6.40
2019-02-19T17:01:13.598Z,5.59
2019-02-19T17:02:13.579Z,6.90
2019-02-19T17:03:13.568Z,7.19
2019-02-19T17:04:13.557Z,6.90
2019-02-19T17:05:13.542Z,4.30
2019-02-19T17:06:13.529Z,5.69
2019-02-19T17:07:13.522Z,5.00
2019-02-19T17:08:13.511Z,8.50
2019-02-19T17:09:13.512Z,6.30
2019-02-19T17:10:13.482Z,6.69
2019-02-19T17:11:13.473Z,6.50
2019-02-19T17:12:13.466Z,5.69
2019-02-19T17:13:13.473Z,4.09
2019-02-19T17:14:13.446Z,5.00
2019-02-19T17:15:13.481Z,5.30
2019-02-19T17:16:13.544Z,5.80
2019-02-19T17:17:13.410Z,6.90
2019-02-19T17:18:13.410Z,5.80
2019-02-19T17:19:13.397Z,8.39
2019-02-19T17:20:21.281Z,5.40
2019-02-19T17:21:38.842Z,4.19
2019-02-19T17:22:38.831Z,4.69
2019-02-19T17:23:38.834Z,3.79
